Terminal Aerodrome Forecast
Issued by NWS Northern Indiana

Home | Current Version | Previous Version | Graphics & Text | Print | Product List | Glossary On
Versions: 1 2 3 4 5 6 7 8 9 10 11 12 13 14 15 16 17 18
319
FTUS43 KIWX 061528 AAB
TAFFWA
TAF AMD
KFWA 061528Z 0615/0712 05009KT 6SM BR VCSH OVC018
     FM061630 02007KT 5SM -RA BR OVC015
     FM061900 28008KT P6SM OVC015
     FM070000 27013KT P6SM BKN020=

USA.gov is the U.S. government's official web portal to all federal, state and local government web resources and services.